createdAt,value
2023-01-10T00:01:57.148Z,90.50
2023-01-10T00:04:26.530Z,90.50
2023-01-10T00:06:53.385Z,90.50
2023-01-10T00:09:20.033Z,90.50
2023-01-10T00:12:05.460Z,90.50
2023-01-10T00:14:35.025Z,90.50
2023-01-10T00:17:02.337Z,90.50
2023-01-10T00:19:29.107Z,90.50
2023-01-10T00:21:57.756Z,90.90
2023-01-10T00:24:24.467Z,90.90
2023-01-10T00:26:51.707Z,90.50
2023-01-10T00:29:19.173Z,90.60
2023-01-10T00:31:45.857Z,90.50
2023-01-10T00:34:12.583Z,90.50
2023-01-10T00:36:39.413Z,90.50
2023-01-10T00:39:06.670Z,90.60
2023-01-10T00:41:52.379Z,90.60
2023-01-10T00:44:19.134Z,90.60
2023-01-10T00:46:45.802Z,90.50
2023-01-10T00:49:15.222Z,90.50
2023-01-10T00:51:42.697Z,90.50
2023-01-10T00:54:09.913Z,90.50
2023-01-10T00:56:36.686Z,90.50
2023-01-10T00:59:04.939Z,90.90
2023-01-10T01:01:32.082Z,90.50
2023-01-10T01:04:02.108Z,90.50
2023-01-10T01:06:28.886Z,90.50
2023-01-10T01:08:55.566Z,90.50
2023-01-10T01:11:22.319Z,90.40
2023-01-10T01:13:48.949Z,90.40
2023-01-10T01:16:15.560Z,90.50
2023-01-10T01:18:42.305Z,90.50
2023-01-10T01:21:09.041Z,90.50
2023-01-10T01:23:35.804Z,90.50
2023-01-10T01:26:02.483Z,90.50
2023-01-10T01:28:29.171Z,90.50
2023-01-10T01:30:55.879Z,90.90
2023-01-10T01:33:22.813Z,90.40
2023-01-10T01:35:49.867Z,90.50
2023-01-10T01:38:17.358Z,90.40
2023-01-10T01:40:44.870Z,90.40
2023-01-10T01:43:23.248Z,90.40
2023-01-10T01:45:50.182Z,90.40
2023-01-10T01:48:35.761Z,90.40
2023-01-10T01:51:14.479Z,90.40
2023-01-10T01:53:44.646Z,90.50
2023-01-10T01:56:26.260Z,90.50
2023-01-10T01:58:56.958Z,90.50
2023-01-10T02:01:24.008Z,90.50
2023-01-10T02:03:53.906Z,90.50
2023-01-10T02:06:21.278Z,90.50
2023-01-10T02:08:52.022Z,90.50
2023-01-10T02:11:19.185Z,90.50
2023-01-10T02:13:46.522Z,90.80
2023-01-10T02:16:13.797Z,90.40
2023-01-10T02:18:42.526Z,90.40
2023-01-10T02:21:18.169Z,90.40
2023-01-10T02:23:51.647Z,90.40
2023-01-10T02:26:21.533Z,90.40
2023-01-10T02:28:54.321Z,90.50
2023-01-10T02:31:39.758Z,90.40
2023-01-10T02:34:30.426Z,90.40
2023-01-10T02:37:02.513Z,90.40
2023-01-10T02:39:44.535Z,90.40
2023-01-10T02:42:31.369Z,90.50
2023-01-10T02:45:00.357Z,90.50
2023-01-10T02:47:27.158Z,90.50
2023-01-10T02:49:53.985Z,90.50
2023-01-10T02:52:25.945Z,90.50
2023-01-10T02:54:58.552Z,90.40
2023-01-10T02:57:31.643Z,90.50
2023-01-10T03:00:02.630Z,90.50
2023-01-10T03:02:32.424Z,90.50
2023-01-10T03:04:59.116Z,90.40
2023-01-10T03:07:34.426Z,90.40
2023-01-10T03:10:07.590Z,90.40
2023-01-10T03:12:55.342Z,90.40
2023-01-10T03:15:23.364Z,90.30
2023-01-10T03:17:51.401Z,90.40
2023-01-10T03:20:19.792Z,90.40
2023-01-10T03:22:47.497Z,90.40
2023-01-10T03:25:16.338Z,90.40
2023-01-10T03:27:58.587Z,90.40
2023-01-10T03:30:30.576Z,90.40
2023-01-10T03:32:59.514Z,90.40
2023-01-10T03:35:32.691Z,90.40
2023-01-10T03:38:04.501Z,90.40
2023-01-10T03:40:55.468Z,90.40
2023-01-10T03:44:08.973Z,90.50
2023-01-10T03:46:38.468Z,90.40
2023-01-10T03:49:06.642Z,90.40
2023-01-10T03:51:33.813Z,90.40
2023-01-10T03:54:01.232Z,90.40
2023-01-10T03:56:27.991Z,90.40
2023-01-10T03:58:54.798Z,90.30
2023-01-10T04:01:21.678Z,90.30
2023-01-10T04:03:48.443Z,90.30
2023-01-10T04:06:17.416Z,90.30
2023-01-10T04:08:44.528Z,90.30
2023-01-10T04:11:11.538Z,90.40
2023-01-10T04:13:38.239Z,90.30
2023-01-10T04:16:05.103Z,90.30
2023-01-10T04:18:31.727Z,90.30
2023-01-10T04:20:58.520Z,90.30
2023-01-10T04:23:25.266Z,90.30
2023-01-10T04:25:51.953Z,90.30
2023-01-10T04:28:18.576Z,90.40
2023-01-10T04:30:45.315Z,90.40
2023-01-10T04:33:12.476Z,90.40
2023-01-10T04:35:39.328Z,90.40
2023-01-10T04:38:06.001Z,90.40
2023-01-10T04:40:32.824Z,90.40
2023-01-10T04:42:59.625Z,90.40
2023-01-10T04:45:26.514Z,90.40
2023-01-10T04:47:55.953Z,90.40
2023-01-10T04:50:23.688Z,90.40
2023-01-10T04:52:50.602Z,90.40
2023-01-10T04:55:17.357Z,90.40
2023-01-10T04:57:44.362Z,90.40
2023-01-10T05:00:12.031Z,90.40
2023-01-10T05:02:43.821Z,90.40
2023-01-10T05:05:11.823Z,90.40
2023-01-10T05:07:38.826Z,90.40
2023-01-10T05:10:06.280Z,90.40
2023-01-10T05:12:32.988Z,90.40
2023-01-10T05:14:59.735Z,90.40
2023-01-10T05:17:26.696Z,90.50
2023-01-10T05:19:53.719Z,90.40
2023-01-10T05:22:20.544Z,90.40
2023-01-10T05:24:47.236Z,90.40
2023-01-10T05:27:13.888Z,90.40
2023-01-10T05:29:40.751Z,90.30
2023-01-10T05:32:07.802Z,90.40
2023-01-10T05:34:34.682Z,90.40
2023-01-10T05:37:01.624Z,90.40
2023-01-10T05:39:28.412Z,90.40
2023-01-10T05:41:55.160Z,90.40
2023-01-10T05:44:21.885Z,90.40
2023-01-10T05:46:48.659Z,90.40
2023-01-10T05:49:15.508Z,90.40
2023-01-10T05:51:42.377Z,90.40
2023-01-10T05:54:09.383Z,90.40
2023-01-10T05:56:36.112Z,90.50
2023-01-10T05:59:11.771Z,90.50
2023-01-10T06:01:40.927Z,90.50
2023-01-10T06:04:09.906Z,90.50
2023-01-10T06:06:36.683Z,90.50
2023-01-10T06:09:03.384Z,90.50
2023-01-10T06:11:30.209Z,90.50
2023-01-10T06:13:57.736Z,90.50
2023-01-10T06:16:24.943Z,90.50
2023-01-10T06:18:51.613Z,90.50
2023-01-10T06:21:18.323Z,90.50
2023-01-10T06:23:45.045Z,90.50
2023-01-10T06:26:11.967Z,90.50
2023-01-10T06:28:40.982Z,90.50
2023-01-10T06:31:08.025Z,90.50
2023-01-10T06:33:34.901Z,90.50
2023-01-10T06:36:02.084Z,90.50
2023-01-10T06:38:28.730Z,90.60
2023-01-10T06:40:55.405Z,90.60
2023-01-10T06:43:22.182Z,90.60
2023-01-10T06:45:51.306Z,90.60
2023-01-10T06:48:18.054Z,90.60
2023-01-10T06:50:44.733Z,90.60
2023-01-10T06:53:11.709Z,90.60
2023-01-10T06:55:38.787Z,90.60
2023-01-10T06:58:05.630Z,90.70
2023-01-10T07:00:32.431Z,90.70
2023-01-10T07:02:59.956Z,90.60
2023-01-10T07:05:27.022Z,90.60
2023-01-10T07:07:54.033Z,90.60
2023-01-10T07:10:20.660Z,90.60
2023-01-10T07:12:47.215Z,90.60
2023-01-10T07:15:13.899Z,90.60
2023-01-10T07:17:40.509Z,90.60
2023-01-10T07:20:07.540Z,91.00
2023-01-10T07:22:34.238Z,90.60
2023-01-10T07:25:01.041Z,90.60
2023-01-10T07:27:30.081Z,90.70
2023-01-10T07:29:56.883Z,90.70
2023-01-10T07:32:23.631Z,90.70
2023-01-10T07:34:50.309Z,90.70
2023-01-10T07:37:17.052Z,90.70
2023-01-10T07:39:43.787Z,90.70
2023-01-10T07:42:10.415Z,90.70
2023-01-10T07:44:38.053Z,90.80
2023-01-10T07:47:04.691Z,90.80
2023-01-10T07:49:31.498Z,90.80
2023-01-10T07:51:58.238Z,90.80
2023-01-10T07:54:25.390Z,90.80
2023-01-10T07:56:52.137Z,90.80
2023-01-10T07:59:18.830Z,90.80
2023-01-10T08:01:45.565Z,90.80
2023-01-10T08:04:12.349Z,90.80
2023-01-10T08:06:39.015Z,90.80
2023-01-10T08:09:06.573Z,90.80
2023-01-10T08:11:33.516Z,90.80
2023-01-10T08:14:00.281Z,90.80
2023-01-10T08:16:27.067Z,90.80
2023-01-10T08:18:53.875Z,90.80
2023-01-10T08:21:20.626Z,90.80
2023-01-10T08:23:47.935Z,90.80
2023-01-10T08:26:14.769Z,90.80
2023-01-10T08:28:41.431Z,90.80
2023-01-10T08:31:09.031Z,90.80
2023-01-10T08:33:39.667Z,90.80
2023-01-10T08:36:06.881Z,90.90
2023-01-10T08:38:33.693Z,91.20
2023-01-10T08:41:02.801Z,90.90
2023-01-10T08:43:29.434Z,90.90
2023-01-10T08:45:56.068Z,90.90
2023-01-10T08:48:23.091Z,90.90
2023-01-10T08:50:49.765Z,90.90
2023-01-10T08:53:17.014Z,91.00
2023-01-10T08:55:43.766Z,90.90
2023-01-10T08:58:11.422Z,90.90
2023-01-10T09:00:38.130Z,90.90
2023-01-10T09:03:06.072Z,90.90
2023-01-10T09:05:33.663Z,90.90
2023-01-10T09:08:01.194Z,90.90
2023-01-10T09:10:28.563Z,91.00
2023-01-10T09:12:55.479Z,91.00
2023-01-10T09:15:27.093Z,91.00
2023-01-10T09:17:57.698Z,91.00
2023-01-10T09:20:25.485Z,91.10
2023-01-10T09:22:52.182Z,91.10
2023-01-10T09:25:18.878Z,91.10
2023-01-10T09:27:45.558Z,91.20
2023-01-10T09:30:12.442Z,91.20
2023-01-10T09:32:39.094Z,91.30
2023-01-10T09:35:05.962Z,91.30
2023-01-10T09:37:33.686Z,91.30
2023-01-10T09:40:00.657Z,91.30
2023-01-10T09:42:28.389Z,91.30
2023-01-10T09:45:10.520Z,91.30
2023-01-10T09:47:59.428Z,91.30
2023-01-10T09:50:29.500Z,91.40
2023-01-10T09:52:58.683Z,91.30
2023-01-10T09:55:32.168Z,91.30
2023-01-10T09:58:01.380Z,91.50
2023-01-10T10:00:35.682Z,91.90
2023-01-10T10:03:04.778Z,91.40
2023-01-10T10:05:31.757Z,91.50
2023-01-10T10:08:00.018Z,91.50
2023-01-10T10:10:31.446Z,91.50
2023-01-10T10:13:11.600Z,91.50
2023-01-10T10:15:43.706Z,91.60
2023-01-10T10:18:29.447Z,92.00
2023-01-10T10:21:14.953Z,91.60
2023-01-10T10:23:41.710Z,91.60
2023-01-10T10:26:17.639Z,91.70
2023-01-10T10:28:55.108Z,91.80
2023-01-10T10:31:39.505Z,91.90
2023-01-10T10:34:14.636Z,91.90
2023-01-10T10:36:44.359Z,91.90
2023-01-10T10:39:15.587Z,91.90
2023-01-10T10:41:43.848Z,91.90
2023-01-10T10:44:32.665Z,91.80
2023-01-10T10:46:59.780Z,91.90
2023-01-10T10:49:33.361Z,92.00
2023-01-10T10:52:02.434Z,91.90
2023-01-10T10:54:29.537Z,91.90
2023-01-10T10:56:58.287Z,91.90
2023-01-10T10:59:24.969Z,91.90
2023-01-10T11:01:52.074Z,91.90
2023-01-10T11:04:20.992Z,91.90
2023-01-10T11:06:49.134Z,91.90
2023-01-10T11:09:31.144Z,91.90
2023-01-10T11:11:59.216Z,91.90
2023-01-10T11:15:01.654Z,91.90
2023-01-10T11:17:33.648Z,91.90
2023-01-10T11:20:01.857Z,92.00
2023-01-10T11:22:30.139Z,92.00
2023-01-10T11:24:59.758Z,92.00
2023-01-10T11:27:28.323Z,92.10
2023-01-10T11:29:56.091Z,92.10
2023-01-10T11:32:24.308Z,92.20
2023-01-10T11:34:58.964Z,92.20
2023-01-10T11:37:29.351Z,92.20
2023-01-10T11:40:15.098Z,92.10
2023-01-10T11:42:42.101Z,92.10
2023-01-10T11:45:17.980Z,92.00
2023-01-10T11:47:56.344Z,92.00
2023-01-10T11:50:28.073Z,92.10
2023-01-10T11:52:54.995Z,92.10
2023-01-10T11:55:23.590Z,92.20
2023-01-10T11:57:59.544Z,92.10
2023-01-10T12:00:34.518Z,92.10
2023-01-10T12:03:01.498Z,92.10
2023-01-10T12:05:28.620Z,92.00
2023-01-10T12:07:56.841Z,92.00
2023-01-10T12:10:24.654Z,92.00
2023-01-10T12:13:07.925Z,92.00
2023-01-10T12:15:35.661Z,92.00
2023-01-10T12:18:04.023Z,92.00
2023-01-10T12:20:41.958Z,92.00
2023-01-10T12:23:11.153Z,92.00
2023-01-10T12:25:40.011Z,92.00
2023-01-10T12:28:27.116Z,92.00
2023-01-10T12:30:55.649Z,92.10
2023-01-10T12:33:27.624Z,92.10
2023-01-10T12:36:13.000Z,92.10
2023-01-10T12:39:04.091Z,92.10
2023-01-10T12:42:01.118Z,92.00
2023-01-10T12:44:47.493Z,92.00
2023-01-10T12:47:19.398Z,92.00
2023-01-10T12:49:58.317Z,92.00
2023-01-10T12:52:34.156Z,92.00
2023-01-10T12:55:00.973Z,92.10
2023-01-10T12:57:51.620Z,92.00
2023-01-10T13:00:30.941Z,92.00
2023-01-10T13:03:00.549Z,92.00
2023-01-10T13:05:28.499Z,92.00
2023-01-10T13:08:24.761Z,92.00
2023-01-10T13:10:53.419Z,92.00
2023-01-10T13:13:33.228Z,92.00
2023-01-10T13:16:12.228Z,92.00
2023-01-10T13:18:57.368Z,92.00
2023-01-10T13:21:24.115Z,91.90
2023-01-10T13:23:57.388Z,91.90
2023-01-10T13:26:24.053Z,92.00
2023-01-10T13:29:00.892Z,92.00
2023-01-10T13:31:35.109Z,92.00
2023-01-10T13:34:07.083Z,92.00
2023-01-10T13:36:38.269Z,92.00
2023-01-10T13:39:07.968Z,92.00
2023-01-10T13:42:12.382Z,92.10
2023-01-10T13:44:58.042Z,92.00
2023-01-10T13:47:40.116Z,92.00
2023-01-10T13:50:37.750Z,92.00
2023-01-10T13:53:04.478Z,92.00
2023-01-10T13:55:34.187Z,92.00
2023-01-10T13:58:41.158Z,92.00
2023-01-10T14:01:45.837Z,91.90
2023-01-10T14:04:20.337Z,91.90
2023-01-10T14:06:52.480Z,91.90
2023-01-10T14:09:20.199Z,91.90
2023-01-10T14:11:52.123Z,91.90
2023-01-10T14:14:21.561Z,91.90
2023-01-10T14:16:49.516Z,91.90
2023-01-10T14:19:31.040Z,91.90
2023-01-10T14:21:58.998Z,91.90
2023-01-10T14:24:27.479Z,91.90
2023-01-10T14:26:57.322Z,91.80
2023-01-10T14:29:28.344Z,91.80
2023-01-10T14:31:56.005Z,91.80
2023-01-10T14:34:24.277Z,91.80
2023-01-10T14:37:11.257Z,91.80
2023-01-10T14:39:38.027Z,91.80
2023-01-10T14:42:08.870Z,91.80
2023-01-10T14:44:38.811Z,91.80
2023-01-10T14:47:05.583Z,91.80
2023-01-10T14:49:36.645Z,91.80
2023-01-10T14:52:17.014Z,91.80
2023-01-10T14:54:43.895Z,91.70
2023-01-10T14:57:23.638Z,91.70
2023-01-10T14:59:51.070Z,91.70
2023-01-10T15:02:22.947Z,91.70
2023-01-10T15:04:55.574Z,91.70
2023-01-10T15:07:23.777Z,91.70
2023-01-10T15:09:50.960Z,91.70
2023-01-10T15:12:18.275Z,91.70
2023-01-10T15:14:45.508Z,91.70
2023-01-10T15:17:20.030Z,91.70
2023-01-10T15:19:48.179Z,91.60
2023-01-10T15:22:27.316Z,91.60
2023-01-10T15:25:17.432Z,91.60
2023-01-10T15:27:51.179Z,91.50
2023-01-10T15:30:18.676Z,91.50
2023-01-10T15:32:49.192Z,91.50
2023-01-10T15:35:20.666Z,91.50
2023-01-10T15:37:52.374Z,91.50
2023-01-10T15:40:39.336Z,91.50
2023-01-10T15:43:18.401Z,91.50
2023-01-10T15:45:46.072Z,91.40
2023-01-10T15:48:31.863Z,91.40
2023-01-10T15:51:03.554Z,91.40
2023-01-10T15:53:49.266Z,91.40
2023-01-10T15:56:19.198Z,91.40
2023-01-10T15:58:46.096Z,91.40
2023-01-10T16:01:14.400Z,91.40
2023-01-10T16:03:46.093Z,91.30
2023-01-10T16:06:45.632Z,91.30
2023-01-10T16:09:19.065Z,91.30
2023-01-10T16:12:09.041Z,91.30
2023-01-10T16:14:35.963Z,91.30
2023-01-10T16:17:02.797Z,91.30
2023-01-10T16:19:29.619Z,91.30
2023-01-10T16:22:00.291Z,91.20
2023-01-10T16:24:28.063Z,91.20
2023-01-10T16:26:55.664Z,91.20
2023-01-10T16:29:22.667Z,91.20
2023-01-10T16:31:49.550Z,91.20
2023-01-10T16:34:16.276Z,91.20
2023-01-10T16:36:43.082Z,91.10
2023-01-10T16:39:14.632Z,91.10
2023-01-10T16:42:00.699Z,91.20
2023-01-10T16:44:27.402Z,91.20
2023-01-10T16:46:54.381Z,91.20
2023-01-10T16:49:21.390Z,91.20
2023-01-10T16:51:48.300Z,91.10
2023-01-10T16:54:15.924Z,91.10
2023-01-10T16:56:44.994Z,91.10
2023-01-10T16:59:12.362Z,91.10
2023-01-10T17:01:41.836Z,91.10
2023-01-10T17:04:09.712Z,91.20
2023-01-10T17:06:36.409Z,91.10
2023-01-10T17:09:03.397Z,91.10
2023-01-10T17:11:32.433Z,91.10
2023-01-10T17:13:59.539Z,91.10
2023-01-10T17:16:26.256Z,91.10
2023-01-10T17:18:52.956Z,91.10
2023-01-10T17:21:20.783Z,91.20
2023-01-10T17:23:48.033Z,91.10
2023-01-10T17:26:15.490Z,91.10
2023-01-10T17:28:42.511Z,91.10
2023-01-10T17:31:09.220Z,91.10
2023-01-10T17:33:36.145Z,91.10
2023-01-10T17:36:02.851Z,91.00
2023-01-10T17:38:30.038Z,91.00
2023-01-10T17:40:58.531Z,91.10
2023-01-10T17:43:25.151Z,91.10
2023-01-10T17:45:51.907Z,91.00
2023-01-10T17:48:19.017Z,91.00
2023-01-10T17:50:46.531Z,91.10
2023-01-10T17:53:13.251Z,91.00
2023-01-10T17:55:44.040Z,91.10
2023-01-10T17:58:10.662Z,91.10
2023-01-10T18:00:37.326Z,91.10
2023-01-10T18:03:04.040Z,91.10
2023-01-10T18:05:32.204Z,91.10
2023-01-10T18:08:01.052Z,91.10
2023-01-10T18:10:28.945Z,91.20
2023-01-10T18:12:56.263Z,91.10
2023-01-10T18:15:23.549Z,91.10
2023-01-10T18:17:50.485Z,91.20
2023-01-10T18:20:17.287Z,91.20
2023-01-10T18:23:04.812Z,91.20
2023-01-10T18:25:31.679Z,91.20
2023-01-10T18:28:00.045Z,91.10
2023-01-10T18:30:26.748Z,91.10
2023-01-10T18:32:56.536Z,91.10
2023-01-10T18:35:23.424Z,91.10
2023-01-10T18:37:50.473Z,91.10
2023-01-10T18:40:17.415Z,91.10
2023-01-10T18:42:44.225Z,91.10
2023-01-10T18:45:10.974Z,91.10
2023-01-10T18:47:37.935Z,91.10
2023-01-10T18:50:05.132Z,91.10
2023-01-10T18:52:32.088Z,91.10
2023-01-10T18:55:00.911Z,91.10
2023-01-10T18:57:32.371Z,91.10
2023-01-10T18:59:59.487Z,91.00
2023-01-10T19:02:26.879Z,91.00
2023-01-10T19:04:53.991Z,91.00
2023-01-10T19:07:21.077Z,91.00
2023-01-10T19:09:50.728Z,91.00
2023-01-10T19:12:17.805Z,91.00
2023-01-10T19:14:50.213Z,91.00
2023-01-10T19:17:18.480Z,91.00
2023-01-10T19:19:45.312Z,91.00
2023-01-10T19:22:13.851Z,90.90
2023-01-10T19:24:41.525Z,90.90
2023-01-10T19:27:09.099Z,90.90
2023-01-10T19:29:36.800Z,90.90
2023-01-10T19:32:04.202Z,91.00
2023-01-10T19:34:31.287Z,90.90
2023-01-10T19:36:58.157Z,91.00
2023-01-10T19:39:27.209Z,90.90
2023-01-10T19:41:55.794Z,90.90
2023-01-10T19:44:22.774Z,90.90
2023-01-10T19:46:50.960Z,90.90
2023-01-10T19:49:19.415Z,90.90
2023-01-10T19:51:49.332Z,90.90
2023-01-10T19:54:16.766Z,90.80
2023-01-10T19:56:43.893Z,90.80
2023-01-10T19:59:13.573Z,90.80
2023-01-10T20:01:40.572Z,90.80
2023-01-10T20:04:08.746Z,90.80
2023-01-10T20:06:38.041Z,90.80
2023-01-10T20:09:07.838Z,90.80
2023-01-10T20:11:38.434Z,90.80
2023-01-10T20:14:05.994Z,90.80
2023-01-10T20:16:33.348Z,90.80
2023-01-10T20:19:01.238Z,90.80
2023-01-10T20:21:31.778Z,90.70
2023-01-10T20:24:01.027Z,90.80
2023-01-10T20:26:31.081Z,90.70
2023-01-10T20:29:01.939Z,90.70
2023-01-10T20:31:29.879Z,90.80
2023-01-10T20:33:58.372Z,90.80
2023-01-10T20:36:26.337Z,90.70
2023-01-10T20:38:55.771Z,90.70
2023-01-10T20:41:24.554Z,90.70
2023-01-10T20:43:52.206Z,90.70
2023-01-10T20:46:23.066Z,90.70
2023-01-10T20:48:50.909Z,91.10
2023-01-10T20:51:20.561Z,90.70
2023-01-10T20:53:50.787Z,90.70
2023-01-10T20:56:22.415Z,90.60
2023-01-10T20:58:50.270Z,90.60
2023-01-10T21:01:28.632Z,90.60
2023-01-10T21:04:00.681Z,90.50
2023-01-10T21:06:27.760Z,90.50
2023-01-10T21:08:54.672Z,90.50
2023-01-10T21:11:21.834Z,90.50
2023-01-10T21:13:50.151Z,90.50
2023-01-10T21:16:19.324Z,90.50
2023-01-10T21:18:46.926Z,90.60
2023-01-10T21:21:14.913Z,90.90
2023-01-10T21:23:42.426Z,90.50
2023-01-10T21:26:11.147Z,90.50
2023-01-10T21:28:40.475Z,90.50
2023-01-10T21:31:07.344Z,90.50
2023-01-10T21:33:34.563Z,90.50
2023-01-10T21:36:01.433Z,90.50
2023-01-10T21:38:30.425Z,90.60
2023-01-10T21:41:04.528Z,90.50
2023-01-10T21:43:31.915Z,90.50
2023-01-10T21:45:59.471Z,90.50
2023-01-10T21:48:26.447Z,90.50
2023-01-10T21:50:53.699Z,90.50
2023-01-10T21:53:20.987Z,90.40
2023-01-10T21:55:47.661Z,90.40
2023-01-10T21:58:14.432Z,90.50
2023-01-10T22:00:41.189Z,90.40
2023-01-10T22:03:07.825Z,90.40
2023-01-10T22:05:34.460Z,90.40
2023-01-10T22:08:01.189Z,90.40
2023-01-10T22:10:27.823Z,90.40
2023-01-10T22:12:54.630Z,90.40
2023-01-10T22:15:21.225Z,90.40
2023-01-10T22:17:48.268Z,90.40
2023-01-10T22:20:16.742Z,90.40
2023-01-10T22:22:43.609Z,90.40
2023-01-10T22:25:10.505Z,90.40
2023-01-10T22:27:37.126Z,90.40
2023-01-10T22:30:04.416Z,90.40
2023-01-10T22:32:31.283Z,90.40
2023-01-10T22:34:58.183Z,90.40
2023-01-10T22:37:24.921Z,90.40
2023-01-10T22:39:51.527Z,90.40
2023-01-10T22:42:18.227Z,90.40
2023-01-10T22:44:45.054Z,90.40
2023-01-10T22:47:11.720Z,90.40
2023-01-10T22:49:38.617Z,90.40
2023-01-10T22:52:08.251Z,90.40
2023-01-10T22:54:35.091Z,90.40
2023-01-10T22:57:01.804Z,90.40
2023-01-10T22:59:28.550Z,90.40
2023-01-10T23:01:55.405Z,90.40
2023-01-10T23:04:22.271Z,90.40
2023-01-10T23:06:50.174Z,90.40
2023-01-10T23:09:17.047Z,90.30
2023-01-10T23:11:43.725Z,90.30
2023-01-10T23:14:10.667Z,90.30
2023-01-10T23:16:37.660Z,90.30
2023-01-10T23:19:04.338Z,90.30
2023-01-10T23:21:31.159Z,90.30
2023-01-10T23:23:57.814Z,90.30
2023-01-10T23:26:24.579Z,90.30
2023-01-10T23:28:52.604Z,90.30
2023-01-10T23:31:20.685Z,90.30
2023-01-10T23:33:47.779Z,90.30
2023-01-10T23:36:14.543Z,90.30
2023-01-10T23:38:41.156Z,90.40
2023-01-10T23:41:08.007Z,90.30
2023-01-10T23:43:34.692Z,90.30
2023-01-10T23:46:02.339Z,90.30
2023-01-10T23:48:29.472Z,90.30
2023-01-10T23:50:56.624Z,90.30
2023-01-10T23:53:23.363Z,90.30
2023-01-10T23:55:50.087Z,90.30
2023-01-10T23:58:17.167Z,90.30
